sensor_id;sensor_type;location;lat;lon;timestamp;temperature;humidity
71188;DHT22;58893;53.130;8.158;2023-04-19T00:00:05;12.30;66.20
71188;DHT22;58893;53.130;8.158;2023-04-19T00:02:34;12.30;66.70
71188;DHT22;58893;53.130;8.158;2023-04-19T00:05:00;12.30;67.50
71188;DHT22;58893;53.130;8.158;2023-04-19T00:07:26;12.20;67.80
71188;DHT22;58893;53.130;8.158;2023-04-19T00:09:52;12.20;68.10
71188;DHT22;58893;53.130;8.158;2023-04-19T00:12:17;12.10;68.20
71188;DHT22;58893;53.130;8.158;2023-04-19T00:14:43;12.10;68.50
71188;DHT22;58893;53.130;8.158;2023-04-19T00:17:09;12.10;68.70
71188;DHT22;58893;53.130;8.158;2023-04-19T00:19:36;12.10;68.80
71188;DHT22;58893;53.130;8.158;2023-04-19T00:22:02;12.00;68.90
71188;DHT22;58893;53.130;8.158;2023-04-19T00:24:28;12.00;69.00
71188;DHT22;58893;53.130;8.158;2023-04-19T00:26:53;12.00;69.40
71188;DHT22;58893;53.130;8.158;2023-04-19T00:29:19;11.90;69.40
71188;DHT22;58893;53.130;8.158;2023-04-19T00:31:45;11.90;70.20
71188;DHT22;58893;53.130;8.158;2023-04-19T00:34:10;11.90;69.60
71188;DHT22;58893;53.130;8.158;2023-04-19T00:36:36;11.80;69.60
71188;DHT22;58893;53.130;8.158;2023-04-19T00:39:02;11.80;70.10
71188;DHT22;58893;53.130;8.158;2023-04-19T00:41:28;11.70;69.30
71188;DHT22;58893;53.130;8.158;2023-04-19T00:43:53;11.70;69.20
71188;DHT22;58893;53.130;8.158;2023-04-19T00:46:19;11.70;69.50
71188;DHT22;58893;53.130;8.158;2023-04-19T00:48:45;11.60;69.40
71188;DHT22;58893;53.130;8.158;2023-04-19T00:51:11;11.60;69.40
71188;DHT22;58893;53.130;8.158;2023-04-19T00:53:37;11.60;69.40
71188;DHT22;58893;53.130;8.158;2023-04-19T00:56:04;11.60;69.00
71188;DHT22;58893;53.130;8.158;2023-04-19T00:58:31;11.50;68.70
71188;DHT22;58893;53.130;8.158;2023-04-19T01:00:57;11.50;68.60
71188;DHT22;58893;53.130;8.158;2023-04-19T01:03:24;11.50;68.20
71188;DHT22;58893;53.130;8.158;2023-04-19T01:05:52;11.50;67.60
71188;DHT22;58893;53.130;8.158;2023-04-19T01:08:17;11.50;67.10
71188;DHT22;58893;53.130;8.158;2023-04-19T01:10:43;11.40;67.00
71188;DHT22;58893;53.130;8.158;2023-04-19T01:13:09;11.40;66.80
71188;DHT22;58893;53.130;8.158;2023-04-19T01:15:35;11.40;66.30
71188;DHT22;58893;53.130;8.158;2023-04-19T01:18:01;11.40;66.10
71188;DHT22;58893;53.130;8.158;2023-04-19T01:20:27;11.40;65.70
71188;DHT22;58893;53.130;8.158;2023-04-19T01:22:52;11.30;65.30
71188;DHT22;58893;53.130;8.158;2023-04-19T01:25:18;11.30;64.80
71188;DHT22;58893;53.130;8.158;2023-04-19T01:27:44;11.30;64.40
71188;DHT22;58893;53.130;8.158;2023-04-19T01:30:10;11.30;64.10
71188;DHT22;58893;53.130;8.158;2023-04-19T01:32:35;11.30;64.00
71188;DHT22;58893;53.130;8.158;2023-04-19T01:35:01;11.20;63.70
71188;DHT22;58893;53.130;8.158;2023-04-19T01:37:27;11.20;63.40
71188;DHT22;58893;53.130;8.158;2023-04-19T01:39:52;11.20;63.20
71188;DHT22;58893;53.130;8.158;2023-04-19T01:42:18;11.20;63.00
71188;DHT22;58893;53.130;8.158;2023-04-19T01:44:43;11.20;62.70
71188;DHT22;58893;53.130;8.158;2023-04-19T01:47:09;11.20;62.20
71188;DHT22;58893;53.130;8.158;2023-04-19T01:49:35;11.20;62.10
71188;DHT22;58893;53.130;8.158;2023-04-19T01:52:00;11.10;62.40
71188;DHT22;58893;53.130;8.158;2023-04-19T01:54:26;11.10;61.80
71188;DHT22;58893;53.130;8.158;2023-04-19T01:56:52;11.10;61.70
71188;DHT22;58893;53.130;8.158;2023-04-19T01:59:17;11.00;61.50
71188;DHT22;58893;53.130;8.158;2023-04-19T02:01:43;11.00;61.30
71188;DHT22;58893;53.130;8.158;2023-04-19T02:04:09;11.00;61.20
71188;DHT22;58893;53.130;8.158;2023-04-19T02:06:34;11.00;60.90
71188;DHT22;58893;53.130;8.158;2023-04-19T02:09:00;11.00;60.80
71188;DHT22;58893;53.130;8.158;2023-04-19T02:11:26;11.00;60.90
71188;DHT22;58893;53.130;8.158;2023-04-19T02:13:51;11.00;60.70
71188;DHT22;58893;53.130;8.158;2023-04-19T02:16:17;11.00;60.50
71188;DHT22;58893;53.130;8.158;2023-04-19T02:18:42;10.90;60.50
71188;DHT22;58893;53.130;8.158;2023-04-19T02:21:09;10.90;60.20
71188;DHT22;58893;53.130;8.158;2023-04-19T02:23:35;10.90;60.30
71188;DHT22;58893;53.130;8.158;2023-04-19T02:26:01;10.90;60.30
71188;DHT22;58893;53.130;8.158;2023-04-19T02:28:30;10.90;60.30
71188;DHT22;58893;53.130;8.158;2023-04-19T02:30:57;10.90;60.30
71188;DHT22;58893;53.130;8.158;2023-04-19T02:33:24;10.80;60.10
71188;DHT22;58893;53.130;8.158;2023-04-19T02:35:49;10.80;60.00
71188;DHT22;58893;53.130;8.158;2023-04-19T02:38:15;10.80;59.80
71188;DHT22;58893;53.130;8.158;2023-04-19T02:40:40;10.70;59.90
71188;DHT22;58893;53.130;8.158;2023-04-19T02:43:06;10.70;59.80
71188;DHT22;58893;53.130;8.158;2023-04-19T02:45:32;10.70;59.90
71188;DHT22;58893;53.130;8.158;2023-04-19T02:47:57;10.70;59.80
71188;DHT22;58893;53.130;8.158;2023-04-19T02:50:25;10.70;59.60
71188;DHT22;58893;53.130;8.158;2023-04-19T02:52:51;10.70;59.80
71188;DHT22;58893;53.130;8.158;2023-04-19T02:55:17;10.70;59.80
71188;DHT22;58893;53.130;8.158;2023-04-19T02:57:42;10.60;59.80
71188;DHT22;58893;53.130;8.158;2023-04-19T03:00:08;10.60;59.80
71188;DHT22;58893;53.130;8.158;2023-04-19T03:02:35;10.60;59.80
71188;DHT22;58893;53.130;8.158;2023-04-19T03:05:01;10.60;59.80
71188;DHT22;58893;53.130;8.158;2023-04-19T03:07:26;10.60;59.90
71188;DHT22;58893;53.130;8.158;2023-04-19T03:09:52;10.50;59.80
71188;DHT22;58893;53.130;8.158;2023-04-19T03:12:17;10.50;59.90
71188;DHT22;58893;53.130;8.158;2023-04-19T03:14:43;10.50;60.00
71188;DHT22;58893;53.130;8.158;2023-04-19T03:17:08;10.50;60.10
71188;DHT22;58893;53.130;8.158;2023-04-19T03:19:34;10.50;60.10
71188;DHT22;58893;53.130;8.158;2023-04-19T03:22:00;10.40;60.50
71188;DHT22;58893;53.130;8.158;2023-04-19T03:24:29;10.40;59.90
71188;DHT22;58893;53.130;8.158;2023-04-19T03:26:55;10.40;60.00
71188;DHT22;58893;53.130;8.158;2023-04-19T03:29:21;10.30;59.90
71188;DHT22;58893;53.130;8.158;2023-04-19T03:31:47;10.30;60.50
71188;DHT22;58893;53.130;8.158;2023-04-19T03:34:13;10.30;59.90
71188;DHT22;58893;53.130;8.158;2023-04-19T03:36:39;10.30;59.90
71188;DHT22;58893;53.130;8.158;2023-04-19T03:39:05;10.20;59.80
71188;DHT22;58893;53.130;8.158;2023-04-19T03:41:31;10.30;59.80
71188;DHT22;58893;53.130;8.158;2023-04-19T03:43:57;10.20;59.70
71188;DHT22;58893;53.130;8.158;2023-04-19T03:46:23;10.20;59.80
71188;DHT22;58893;53.130;8.158;2023-04-19T03:48:49;10.20;59.70
71188;DHT22;58893;53.130;8.158;2023-04-19T03:51:15;10.20;59.60
71188;DHT22;58893;53.130;8.158;2023-04-19T03:53:41;10.20;59.70
71188;DHT22;58893;53.130;8.158;2023-04-19T03:56:07;10.10;59.80
71188;DHT22;58893;53.130;8.158;2023-04-19T03:58:33;10.10;60.00
71188;DHT22;58893;53.130;8.158;2023-04-19T04:00:59;10.10;59.80
71188;DHT22;58893;53.130;8.158;2023-04-19T04:03:25;10.10;59.90
71188;DHT22;58893;53.130;8.158;2023-04-19T04:05:51;10.00;59.90
71188;DHT22;58893;53.130;8.158;2023-04-19T04:08:17;10.00;60.00
71188;DHT22;58893;53.130;8.158;2023-04-19T04:10:42;10.00;60.20
71188;DHT22;58893;53.130;8.158;2023-04-19T04:13:08;10.00;60.30
71188;DHT22;58893;53.130;8.158;2023-04-19T04:15:33;9.90;61.30
71188;DHT22;58893;53.130;8.158;2023-04-19T04:17:59;9.90;61.50
71188;DHT22;58893;53.130;8.158;2023-04-19T04:20:25;9.90;61.60
71188;DHT22;58893;53.130;8.158;2023-04-19T04:22:50;9.90;61.70
71188;DHT22;58893;53.130;8.158;2023-04-19T04:25:17;9.90;61.60
71188;DHT22;58893;53.130;8.158;2023-04-19T04:27:43;9.90;62.40
71188;DHT22;58893;53.130;8.158;2023-04-19T04:30:09;9.90;61.80
71188;DHT22;58893;53.130;8.158;2023-04-19T04:32:38;9.80;61.70
71188;DHT22;58893;53.130;8.158;2023-04-19T04:35:06;9.80;62.50
71188;DHT22;58893;53.130;8.158;2023-04-19T04:37:35;9.80;61.80
71188;DHT22;58893;53.130;8.158;2023-04-19T04:40:02;9.80;62.00
71188;DHT22;58893;53.130;8.158;2023-04-19T04:42:31;9.80;62.20
71188;DHT22;58893;53.130;8.158;2023-04-19T04:44:57;9.70;62.30
71188;DHT22;58893;53.130;8.158;2023-04-19T04:47:30;9.70;62.40
71188;DHT22;58893;53.130;8.158;2023-04-19T04:49:57;9.70;62.30
71188;DHT22;58893;53.130;8.158;2023-04-19T04:52:22;9.70;62.60
71188;DHT22;58893;53.130;8.158;2023-04-19T04:54:48;9.60;62.90
71188;DHT22;58893;53.130;8.158;2023-04-19T04:57:14;9.60;62.90
71188;DHT22;58893;53.130;8.158;2023-04-19T04:59:40;9.60;62.90
71188;DHT22;58893;53.130;8.158;2023-04-19T05:02:05;9.60;63.10
71188;DHT22;58893;53.130;8.158;2023-04-19T05:04:31;9.60;63.00
71188;DHT22;58893;53.130;8.158;2023-04-19T05:06:57;9.60;63.20
71188;DHT22;58893;53.130;8.158;2023-04-19T05:09:23;9.50;63.10
71188;DHT22;58893;53.130;8.158;2023-04-19T05:11:48;9.50;63.40
71188;DHT22;58893;53.130;8.158;2023-04-19T05:14:14;9.50;63.60
71188;DHT22;58893;53.130;8.158;2023-04-19T05:16:39;9.50;63.80
71188;DHT22;58893;53.130;8.158;2023-04-19T05:19:05;9.50;64.00
71188;DHT22;58893;53.130;8.158;2023-04-19T05:21:32;9.50;64.10
71188;DHT22;58893;53.130;8.158;2023-04-19T05:23:58;9.50;64.40
71188;DHT22;58893;53.130;8.158;2023-04-19T05:26:24;9.60;64.90
71188;DHT22;58893;53.130;8.158;2023-04-19T05:28:49;9.60;64.90
71188;DHT22;58893;53.130;8.158;2023-04-19T05:31:15;9.70;64.90
71188;DHT22;58893;53.130;8.158;2023-04-19T05:33:41;9.80;64.90
71188;DHT22;58893;53.130;8.158;2023-04-19T05:36:07;10.00;63.80
71188;DHT22;58893;53.130;8.158;2023-04-19T05:38:32;10.10;63.40
71188;DHT22;58893;53.130;8.158;2023-04-19T05:40:58;10.20;63.10
71188;DHT22;58893;53.130;8.158;2023-04-19T05:43:24;10.30;62.70
71188;DHT22;58893;53.130;8.158;2023-04-19T05:45:49;10.50;62.50
71188;DHT22;58893;53.130;8.158;2023-04-19T05:48:15;10.60;62.00
71188;DHT22;58893;53.130;8.158;2023-04-19T05:50:42;10.80;61.30
71188;DHT22;58893;53.130;8.158;2023-04-19T05:53:07;11.00;60.70
71188;DHT22;58893;53.130;8.158;2023-04-19T05:55:33;11.20;60.10
71188;DHT22;58893;53.130;8.158;2023-04-19T05:57:58;11.40;59.40
71188;DHT22;58893;53.130;8.158;2023-04-19T06:00:25;11.50;57.30
71188;DHT22;58893;53.130;8.158;2023-04-19T06:02:50;11.60;56.80
71188;DHT22;58893;53.130;8.158;2023-04-19T06:05:16;11.70;56.60
71188;DHT22;58893;53.130;8.158;2023-04-19T06:07:41;11.80;56.00
71188;DHT22;58893;53.130;8.158;2023-04-19T06:10:07;11.90;55.40
71188;DHT22;58893;53.130;8.158;2023-04-19T06:12:33;11.90;55.70
71188;DHT22;58893;53.130;8.158;2023-04-19T06:14:59;12.10;54.80
71188;DHT22;58893;53.130;8.158;2023-04-19T06:17:24;12.10;54.70
71188;DHT22;58893;53.130;8.158;2023-04-19T06:19:51;12.20;54.70
71188;DHT22;58893;53.130;8.158;2023-04-19T06:22:17;12.30;54.30
71188;DHT22;58893;53.130;8.158;2023-04-19T06:24:46;12.30;53.90
71188;DHT22;58893;53.130;8.158;2023-04-19T06:27:13;12.40;53.90
71188;DHT22;58893;53.130;8.158;2023-04-19T06:29:39;12.40;54.10
71188;DHT22;58893;53.130;8.158;2023-04-19T06:32:04;12.50;53.80
71188;DHT22;58893;53.130;8.158;2023-04-19T06:34:30;12.50;53.80
71188;DHT22;58893;53.130;8.158;2023-04-19T06:36:55;12.50;53.80
71188;DHT22;58893;53.130;8.158;2023-04-19T06:39:21;12.60;54.00
71188;DHT22;58893;53.130;8.158;2023-04-19T06:41:47;12.60;53.40
71188;DHT22;58893;53.130;8.158;2023-04-19T06:44:12;12.60;53.10
71188;DHT22;58893;53.130;8.158;2023-04-19T06:46:38;12.60;53.00
71188;DHT22;58893;53.130;8.158;2023-04-19T06:49:04;12.70;53.10
71188;DHT22;58893;53.130;8.158;2023-04-19T06:51:31;12.70;52.90
71188;DHT22;58893;53.130;8.158;2023-04-19T06:53:57;12.70;52.20
71188;DHT22;58893;53.130;8.158;2023-04-19T06:56:43;12.80;52.10
71188;DHT22;58893;53.130;8.158;2023-04-19T06:59:13;12.80;52.20
71188;DHT22;58893;53.130;8.158;2023-04-19T07:01:41;12.80;51.80
71188;DHT22;58893;53.130;8.158;2023-04-19T07:04:07;12.80;51.90
71188;DHT22;58893;53.130;8.158;2023-04-19T07:06:34;12.80;51.70
71188;DHT22;58893;53.130;8.158;2023-04-19T07:08:59;12.90;52.10
71188;DHT22;58893;53.130;8.158;2023-04-19T07:11:25;12.90;51.60
71188;DHT22;58893;53.130;8.158;2023-04-19T07:13:51;13.00;51.10
71188;DHT22;58893;53.130;8.158;2023-04-19T07:16:16;13.00;51.00
71188;DHT22;58893;53.130;8.158;2023-04-19T07:18:42;13.00;50.60
71188;DHT22;58893;53.130;8.158;2023-04-19T07:21:08;13.00;50.60
71188;DHT22;58893;53.130;8.158;2023-04-19T07:23:34;13.00;50.60
71188;DHT22;58893;53.130;8.158;2023-04-19T07:26:00;13.00;50.00
71188;DHT22;58893;53.130;8.158;2023-04-19T07:28:29;13.00;50.20
71188;DHT22;58893;53.130;8.158;2023-04-19T07:30:55;13.10;50.50
71188;DHT22;58893;53.130;8.158;2023-04-19T07:33:22;13.10;50.30
71188;DHT22;58893;53.130;8.158;2023-04-19T07:35:49;13.10;50.10
71188;DHT22;58893;53.130;8.158;2023-04-19T07:38:14;13.10;49.90
71188;DHT22;58893;53.130;8.158;2023-04-19T07:40:40;13.10;49.50
71188;DHT22;58893;53.130;8.158;2023-04-19T07:43:06;13.10;49.70
71188;DHT22;58893;53.130;8.158;2023-04-19T07:45:31;13.10;49.50
71188;DHT22;58893;53.130;8.158;2023-04-19T07:47:57;13.20;48.80
71188;DHT22;58893;53.130;8.158;2023-04-19T07:50:24;13.20;49.10
71188;DHT22;58893;53.130;8.158;2023-04-19T07:52:51;13.30;49.40
71188;DHT22;58893;53.130;8.158;2023-04-19T07:55:16;13.30;49.00
71188;DHT22;58893;53.130;8.158;2023-04-19T07:57:42;13.40;48.80
71188;DHT22;58893;53.130;8.158;2023-04-19T08:00:13;13.40;48.50
71188;DHT22;58893;53.130;8.158;2023-04-19T08:02:44;13.50;48.80
71188;DHT22;58893;53.130;8.158;2023-04-19T08:05:11;13.50;48.80
71188;DHT22;58893;53.130;8.158;2023-04-19T08:07:38;13.60;48.90
71188;DHT22;58893;53.130;8.158;2023-04-19T08:10:05;13.70;48.50
71188;DHT22;58893;53.130;8.158;2023-04-19T08:12:31;13.70;48.20
71188;DHT22;58893;53.130;8.158;2023-04-19T08:14:57;13.80;47.90
71188;DHT22;58893;53.130;8.158;2023-04-19T08:17:23;13.90;48.10
71188;DHT22;58893;53.130;8.158;2023-04-19T08:19:49;13.90;48.00
71188;DHT22;58893;53.130;8.158;2023-04-19T08:22:15;14.00;47.70
71188;DHT22;58893;53.130;8.158;2023-04-19T08:24:42;14.10;47.40
71188;DHT22;58893;53.130;8.158;2023-04-19T08:27:09;14.10;46.80
71188;DHT22;58893;53.130;8.158;2023-04-19T08:29:35;14.20;46.30
71188;DHT22;58893;53.130;8.158;2023-04-19T08:32:01;14.20;45.90
71188;DHT22;58893;53.130;8.158;2023-04-19T08:34:27;14.30;46.20
71188;DHT22;58893;53.130;8.158;2023-04-19T08:36:53;14.40;46.00
71188;DHT22;58893;53.130;8.158;2023-04-19T08:39:18;14.40;45.70
71188;DHT22;58893;53.130;8.158;2023-04-19T08:41:44;14.40;45.80
71188;DHT22;58893;53.130;8.158;2023-04-19T08:44:11;14.40;45.80
71188;DHT22;58893;53.130;8.158;2023-04-19T08:46:37;14.50;45.40
71188;DHT22;58893;53.130;8.158;2023-04-19T08:49:07;14.60;45.90
71188;DHT22;58893;53.130;8.158;2023-04-19T08:51:33;14.60;45.80
71188;DHT22;58893;53.130;8.158;2023-04-19T08:54:00;14.70;45.40
71188;DHT22;58893;53.130;8.158;2023-04-19T08:56:28;14.80;45.60
71188;DHT22;58893;53.130;8.158;2023-04-19T08:58:55;14.80;44.90
71188;DHT22;58893;53.130;8.158;2023-04-19T09:01:20;14.80;45.10
71188;DHT22;58893;53.130;8.158;2023-04-19T09:03:46;14.80;45.20
71188;DHT22;58893;53.130;8.158;2023-04-19T09:06:12;14.90;45.20
71188;DHT22;58893;53.130;8.158;2023-04-19T09:08:38;14.90;45.00
71188;DHT22;58893;53.130;8.158;2023-04-19T09:11:05;14.90;44.50
71188;DHT22;58893;53.130;8.158;2023-04-19T09:13:31;14.90;44.90
71188;DHT22;58893;53.130;8.158;2023-04-19T09:15:57;14.90;44.60
71188;DHT22;58893;53.130;8.158;2023-04-19T09:18:26;14.80;43.40
71188;DHT22;58893;53.130;8.158;2023-04-19T09:20:52;14.90;44.10
71188;DHT22;58893;53.130;8.158;2023-04-19T09:23:26;14.90;45.10
71188;DHT22;58893;53.130;8.158;2023-04-19T09:25:59;15.00;45.80
71188;DHT22;58893;53.130;8.158;2023-04-19T09:28:28;15.00;44.90
71188;DHT22;58893;53.130;8.158;2023-04-19T09:30:54;15.10;44.10
71188;DHT22;58893;53.130;8.158;2023-04-19T09:33:37;15.10;41.90
71188;DHT22;58893;53.130;8.158;2023-04-19T09:36:06;15.00;41.90
71188;DHT22;58893;53.130;8.158;2023-04-19T09:38:52;15.00;41.80
71188;DHT22;58893;53.130;8.158;2023-04-19T09:41:18;15.00;41.30
71188;DHT22;58893;53.130;8.158;2023-04-19T09:43:44;15.00;41.00
71188;DHT22;58893;53.130;8.158;2023-04-19T09:48:54;15.00;40.90
71188;DHT22;58893;53.130;8.158;2023-04-19T09:51:21;15.00;38.60
71188;DHT22;58893;53.130;8.158;2023-04-19T09:53:47;15.00;38.20
71188;DHT22;58893;53.130;8.158;2023-04-19T09:56:13;15.00;38.60
71188;DHT22;58893;53.130;8.158;2023-04-19T09:58:39;15.00;40.10
71188;DHT22;58893;53.130;8.158;2023-04-19T10:01:08;15.00;40.10
71188;DHT22;58893;53.130;8.158;2023-04-19T10:03:35;15.00;40.00
71188;DHT22;58893;53.130;8.158;2023-04-19T10:06:01;15.00;39.30
71188;DHT22;58893;53.130;8.158;2023-04-19T10:08:27;15.10;39.80
71188;DHT22;58893;53.130;8.158;2023-04-19T10:10:54;15.10;39.20
71188;DHT22;58893;53.130;8.158;2023-04-19T10:13:20;15.20;38.80
71188;DHT22;58893;53.130;8.158;2023-04-19T10:15:48;15.10;38.10
71188;DHT22;58893;53.130;8.158;2023-04-19T10:18:13;15.20;38.70
71188;DHT22;58893;53.130;8.158;2023-04-19T10:23:21;15.20;38.30
71188;DHT22;58893;53.130;8.158;2023-04-19T10:25:48;15.20;38.10
71188;DHT22;58893;53.130;8.158;2023-04-19T10:28:15;15.20;38.90
71188;DHT22;58893;53.130;8.158;2023-04-19T10:30:57;15.30;39.70
71188;DHT22;58893;53.130;8.158;2023-04-19T10:33:26;15.30;39.10
71188;DHT22;58893;53.130;8.158;2023-04-19T10:35:55;15.30;38.90
71188;DHT22;58893;53.130;8.158;2023-04-19T10:41:03;15.40;40.10
71188;DHT22;58893;53.130;8.158;2023-04-19T10:43:33;15.40;40.30
71188;DHT22;58893;53.130;8.158;2023-04-19T10:48:32;15.50;40.30
71188;DHT22;58893;53.130;8.158;2023-04-19T10:56:08;15.70;41.00
71188;DHT22;58893;53.130;8.158;2023-04-19T10:59:12;15.70;41.40
71188;DHT22;58893;53.130;8.158;2023-04-19T11:01:53;15.80;39.50
71188;DHT22;58893;53.130;8.158;2023-04-19T11:07:03;15.80;37.10
71188;DHT22;58893;53.130;8.158;2023-04-19T11:17:12;16.00;36.80
71188;DHT22;58893;53.130;8.158;2023-04-19T11:19:44;16.00;36.70
71188;DHT22;58893;53.130;8.158;2023-04-19T11:22:17;16.10;37.00
71188;DHT22;58893;53.130;8.158;2023-04-19T11:24:45;16.10;36.70
71188;DHT22;58893;53.130;8.158;2023-04-19T11:27:14;16.20;36.90
71188;DHT22;58893;53.130;8.158;2023-04-19T11:29:40;16.30;37.50
71188;DHT22;58893;53.130;8.158;2023-04-19T11:32:06;16.40;37.70
71188;DHT22;58893;53.130;8.158;2023-04-19T11:34:39;16.40;37.00
71188;DHT22;58893;53.130;8.158;2023-04-19T11:37:04;16.50;36.50
71188;DHT22;58893;53.130;8.158;2023-04-19T11:39:30;16.60;36.20
71188;DHT22;58893;53.130;8.158;2023-04-19T11:41:56;16.60;36.60
71188;DHT22;58893;53.130;8.158;2023-04-19T11:44:22;16.70;37.20
71188;DHT22;58893;53.130;8.158;2023-04-19T11:47:02;16.80;36.40
71188;DHT22;58893;53.130;8.158;2023-04-19T11:49:32;16.90;36.80
71188;DHT22;58893;53.130;8.158;2023-04-19T11:51:59;16.90;35.80
71188;DHT22;58893;53.130;8.158;2023-04-19T11:54:26;16.90;35.90
71188;DHT22;58893;53.130;8.158;2023-04-19T11:59:31;17.00;35.50
71188;DHT22;58893;53.130;8.158;2023-04-19T12:02:08;17.00;35.60
71188;DHT22;58893;53.130;8.158;2023-04-19T12:04:34;17.10;35.10
71188;DHT22;58893;53.130;8.158;2023-04-19T12:07:02;17.10;35.90
71188;DHT22;58893;53.130;8.158;2023-04-19T12:09:28;17.10;35.50
71188;DHT22;58893;53.130;8.158;2023-04-19T12:11:53;17.20;35.80
71188;DHT22;58893;53.130;8.158;2023-04-19T12:14:22;17.20;35.80
71188;DHT22;58893;53.130;8.158;2023-04-19T12:17:10;17.20;35.00
71188;DHT22;58893;53.130;8.158;2023-04-19T12:19:41;17.20;34.50
71188;DHT22;58893;53.130;8.158;2023-04-19T12:22:08;17.20;34.10
71188;DHT22;58893;53.130;8.158;2023-04-19T12:24:34;17.20;34.10
71188;DHT22;58893;53.130;8.158;2023-04-19T12:26:59;17.20;33.80
71188;DHT22;58893;53.130;8.158;2023-04-19T12:29:26;17.20;33.80
71188;DHT22;58893;53.130;8.158;2023-04-19T12:31:51;17.30;33.90
71188;DHT22;58893;53.130;8.158;2023-04-19T12:34:17;17.30;34.40
71188;DHT22;58893;53.130;8.158;2023-04-19T12:36:43;17.30;33.60
71188;DHT22;58893;53.130;8.158;2023-04-19T12:39:09;17.40;33.90
71188;DHT22;58893;53.130;8.158;2023-04-19T12:41:34;17.40;32.60
71188;DHT22;58893;53.130;8.158;2023-04-19T12:44:00;17.40;33.50
71188;DHT22;58893;53.130;8.158;2023-04-19T12:46:25;17.40;32.70
71188;DHT22;58893;53.130;8.158;2023-04-19T12:48:52;17.40;32.50
71188;DHT22;58893;53.130;8.158;2023-04-19T12:51:17;17.40;32.70
71188;DHT22;58893;53.130;8.158;2023-04-19T12:53:47;17.40;32.40
71188;DHT22;58893;53.130;8.158;2023-04-19T12:56:13;17.40;32.80
71188;DHT22;58893;53.130;8.158;2023-04-19T12:58:40;17.40;31.70
71188;DHT22;58893;53.130;8.158;2023-04-19T13:01:06;17.30;31.40
71188;DHT22;58893;53.130;8.158;2023-04-19T13:03:32;17.20;32.10
71188;DHT22;58893;53.130;8.158;2023-04-19T13:06:01;17.20;32.20
71188;DHT22;58893;53.130;8.158;2023-04-19T13:08:26;17.20;32.90
71188;DHT22;58893;53.130;8.158;2023-04-19T13:10:52;17.20;32.90
71188;DHT22;58893;53.130;8.158;2023-04-19T13:13:19;17.20;32.70
71188;DHT22;58893;53.130;8.158;2023-04-19T13:15:45;17.20;32.00
71188;DHT22;58893;53.130;8.158;2023-04-19T13:18:10;17.20;30.10
71188;DHT22;58893;53.130;8.158;2023-04-19T13:20:36;17.20;29.60
71188;DHT22;58893;53.130;8.158;2023-04-19T13:23:02;17.20;29.30
71188;DHT22;58893;53.130;8.158;2023-04-19T13:25:28;17.20;29.70
71188;DHT22;58893;53.130;8.158;2023-04-19T13:27:53;17.20;29.80
71188;DHT22;58893;53.130;8.158;2023-04-19T13:30:19;17.10;29.10
71188;DHT22;58893;53.130;8.158;2023-04-19T13:32:44;17.10;29.00
71188;DHT22;58893;53.130;8.158;2023-04-19T13:35:10;17.10;29.10
71188;DHT22;58893;53.130;8.158;2023-04-19T13:37:36;17.00;29.30
71188;DHT22;58893;53.130;8.158;2023-04-19T13:40:01;17.00;29.50
71188;DHT22;58893;53.130;8.158;2023-04-19T13:42:28;17.00;29.20
71188;DHT22;58893;53.130;8.158;2023-04-19T13:44:54;17.00;28.50
71188;DHT22;58893;53.130;8.158;2023-04-19T13:47:20;16.90;28.10
71188;DHT22;58893;53.130;8.158;2023-04-19T13:49:45;16.80;28.10
71188;DHT22;58893;53.130;8.158;2023-04-19T13:52:17;16.80;27.90
71188;DHT22;58893;53.130;8.158;2023-04-19T13:54:42;16.80;27.70
71188;DHT22;58893;53.130;8.158;2023-04-19T13:57:08;16.80;28.00
71188;DHT22;58893;53.130;8.158;2023-04-19T13:59:34;16.70;27.80
71188;DHT22;58893;53.130;8.158;2023-04-19T14:02:02;16.80;28.10
71188;DHT22;58893;53.130;8.158;2023-04-19T14:04:28;16.80;28.20
71188;DHT22;58893;53.130;8.158;2023-04-19T14:06:53;16.70;28.50
71188;DHT22;58893;53.130;8.158;2023-04-19T14:09:19;16.70;28.20
71188;DHT22;58893;53.130;8.158;2023-04-19T14:11:45;16.70;28.40
71188;DHT22;58893;53.130;8.158;2023-04-19T14:14:11;16.70;28.60
71188;DHT22;58893;53.130;8.158;2023-04-19T14:16:37;16.70;29.10
71188;DHT22;58893;53.130;8.158;2023-04-19T14:19:02;16.70;29.60
71188;DHT22;58893;53.130;8.158;2023-04-19T14:21:29;16.70;29.20
71188;DHT22;58893;53.130;8.158;2023-04-19T14:23:55;16.70;29.50
71188;DHT22;58893;53.130;8.158;2023-04-19T14:26:21;16.70;29.30
71188;DHT22;58893;53.130;8.158;2023-04-19T14:28:47;16.70;29.20
71188;DHT22;58893;53.130;8.158;2023-04-19T14:31:13;16.60;29.50
71188;DHT22;58893;53.130;8.158;2023-04-19T14:33:38;16.60;29.60
71188;DHT22;58893;53.130;8.158;2023-04-19T14:36:04;16.60;30.00
71188;DHT22;58893;53.130;8.158;2023-04-19T14:38:30;16.60;29.60
71188;DHT22;58893;53.130;8.158;2023-04-19T14:40:56;16.60;29.30
71188;DHT22;58893;53.130;8.158;2023-04-19T14:43:21;16.50;29.70
71188;DHT22;58893;53.130;8.158;2023-04-19T14:45:48;16.50;29.70
71188;DHT22;58893;53.130;8.158;2023-04-19T14:48:14;16.50;29.40
71188;DHT22;58893;53.130;8.158;2023-04-19T14:50:39;16.50;28.70
71188;DHT22;58893;53.130;8.158;2023-04-19T14:53:05;16.50;28.30
71188;DHT22;58893;53.130;8.158;2023-04-19T14:55:30;16.50;29.30
71188;DHT22;58893;53.130;8.158;2023-04-19T14:57:56;16.50;29.80
71188;DHT22;58893;53.130;8.158;2023-04-19T15:00:22;16.50;30.00
71188;DHT22;58893;53.130;8.158;2023-04-19T15:02:47;16.50;29.80
71188;DHT22;58893;53.130;8.158;2023-04-19T15:05:13;16.50;29.60
71188;DHT22;58893;53.130;8.158;2023-04-19T15:07:40;16.50;29.30
71188;DHT22;58893;53.130;8.158;2023-04-19T15:10:06;16.50;29.30
71188;DHT22;58893;53.130;8.158;2023-04-19T15:12:32;16.50;28.70
71188;DHT22;58893;53.130;8.158;2023-04-19T15:14:58;16.50;28.40
71188;DHT22;58893;53.130;8.158;2023-04-19T15:17:23;16.40;28.20
71188;DHT22;58893;53.130;8.158;2023-04-19T15:19:49;16.40;28.90
71188;DHT22;58893;53.130;8.158;2023-04-19T15:22:14;16.40;28.90
71188;DHT22;58893;53.130;8.158;2023-04-19T15:24:40;16.30;27.70
71188;DHT22;58893;53.130;8.158;2023-04-19T15:27:06;16.30;27.50
71188;DHT22;58893;53.130;8.158;2023-04-19T15:29:31;16.30;27.70
71188;DHT22;58893;53.130;8.158;2023-04-19T15:31:57;16.30;27.50
71188;DHT22;58893;53.130;8.158;2023-04-19T15:34:23;16.20;27.50
71188;DHT22;58893;53.130;8.158;2023-04-19T15:36:49;16.20;27.70
71188;DHT22;58893;53.130;8.158;2023-04-19T15:39:15;16.20;27.40
71188;DHT22;58893;53.130;8.158;2023-04-19T15:41:41;16.10;27.30
71188;DHT22;58893;53.130;8.158;2023-04-19T15:44:07;16.00;26.90
71188;DHT22;58893;53.130;8.158;2023-04-19T15:46:32;16.00;27.40
71188;DHT22;58893;53.130;8.158;2023-04-19T15:48:58;15.90;26.90
71188;DHT22;58893;53.130;8.158;2023-04-19T15:51:23;15.90;27.40
71188;DHT22;58893;53.130;8.158;2023-04-19T15:53:49;15.90;27.30
71188;DHT22;58893;53.130;8.158;2023-04-19T15:56:15;15.90;27.00